Time;durP1;ratioP1;P1;durP2;ratioP2;P2;SDS_P1;SDS_P2;PMS_P1;PMS_P2;Temp;Humidity;BMP_temperature;BMP_pressure;BME280_temperature;BME280_humidity;BME280_pressure;Samples;Min_cycle;Max_cycle;Signal;HPM_P1;HPM_P2
2021/08/26 00:06:47;;;;;;;9.35;5.32;;;16.10;99.90;;;;;;4987441;28;20266;-52
2021/08/26 00:09:15;;;;;;;7.37;6.67;;;16.40;99.90;;;;;;4991495;28;20532;-52
2021/08/26 00:11:44;;;;;;;7.90;7.10;;;15.80;99.90;;;;;;4989963;28;20175;-52
2021/08/26 00:14:11;;;;;;;8.30;7.20;;;16.20;99.90;;;;;;4991011;28;20709;-52
2021/08/26 00:16:40;;;;;;;7.68;6.13;;;16.00;99.90;;;;;;4990360;28;20215;-51
2021/08/26 00:19:06;;;;;;;7.72;6.10;;;16.00;99.90;;;;;;4988326;28;20582;-51
2021/08/26 00:21:32;;;;;;;7.20;6.50;;;16.10;99.90;;;;;;4991069;28;20187;-52
2021/08/26 00:23:58;;;;;;;7.17;5.80;;;16.00;99.90;;;;;;4991581;28;20414;-51
2021/08/26 00:26:23;;;;;;;7.67;6.30;;;16.10;99.90;;;;;;4985466;28;21051;-51
2021/08/26 00:28:49;;;;;;;6.97;6.27;;;15.80;99.90;;;;;;4991373;28;20175;-51
2021/08/26 00:31:15;;;;;;;6.27;5.50;;;15.90;99.90;;;;;;4991137;28;20193;-49
2021/08/26 00:33:40;;;;;;;7.27;6.17;;;16.10;99.90;;;;;;4991261;28;20190;-50
2021/08/26 00:36:06;;;;;;;6.87;6.07;;;16.10;99.90;;;;;;4987584;28;20202;-49
2021/08/26 00:38:32;;;;;;;8.53;6.37;;;16.00;99.90;;;;;;4989926;28;20203;-50
2021/08/26 00:41:00;;;;;;;6.73;6.13;;;15.60;99.90;;;;;;4980666;28;20192;-49
2021/08/26 00:43:31;;;;;;;7.63;5.93;;;15.90;99.90;;;;;;4986895;28;20175;-49
2021/08/26 00:45:58;;;;;;;7.45;6.72;;;15.60;99.90;;;;;;4991021;28;20674;-50
2021/08/26 00:48:28;;;;;;;8.00;6.32;;;15.40;99.90;;;;;;4990624;28;20274;-51
2021/08/26 00:50:55;;;;;;;6.70;6.10;;;15.60;99.90;;;;;;4988388;28;20179;-51
2021/08/26 00:53:22;;;;;;;7.15;6.22;;;15.20;99.90;;;;;;4990750;28;20546;-51
2021/08/26 00:55:48;;;;;;;7.38;5.95;;;15.40;99.90;;;;;;4988021;28;20381;-49
2021/08/26 00:58:14;;;;;;;6.20;5.53;;;15.50;99.90;;;;;;4988829;28;20183;-49
2021/08/26 01:00:44;;;;;;;6.63;5.87;;;15.50;99.90;;;;;;4989356;28;20466;-51
2021/08/26 01:03:12;;;;;;;8.48;6.30;;;15.60;99.90;;;;;;4991145;28;20184;-51
2021/08/26 01:05:56;;;;;;;7.78;6.68;;;15.30;99.90;;;;;;4988856;28;20270;-50
2021/08/26 01:08:34;;;;;;;7.93;5.93;;;15.10;99.90;;;;;;4990608;28;20249;-50
2021/08/26 01:11:03;;;;;;;7.43;6.05;;;15.30;99.90;;;;;;4984786;28;20172;-50
2021/08/26 01:13:38;;;;;;;7.05;6.20;;;15.60;99.90;;;;;;4990904;28;20226;-50
2021/08/26 01:16:09;;;;;;;7.15;5.90;;;15.40;99.90;;;;;;4982898;28;20212;-50
2021/08/26 01:18:43;;;;;;;6.45;5.65;;;15.10;99.90;;;;;;4989026;28;20691;-51
2021/08/26 01:21:14;;;;;;;6.68;5.65;;;15.20;99.90;;;;;;4982501;28;20568;-50
2021/08/26 01:23:43;;;;;;;8.18;5.97;;;15.30;99.90;;;;;;4991266;28;20263;-50
2021/08/26 01:26:36;;;;;;;7.22;5.40;;;15.20;99.90;;;;;;4989697;28;20207;-50
2021/08/26 01:29:04;;;;;;;8.10;5.63;;;15.10;99.90;;;;;;4979487;28;20258;-50
2021/08/26 01:31:30;;;;;;;9.77;6.10;;;15.30;99.90;;;;;;4990722;28;20206;-50
2021/08/26 01:33:57;;;;;;;7.25;6.30;;;15.00;99.90;;;;;;4987951;28;20600;-50
2021/08/26 01:36:28;;;;;;;6.40;5.80;;;15.10;99.90;;;;;;4989578;28;20302;-50
2021/08/26 01:39:00;;;;;;;6.75;6.05;;;15.00;99.90;;;;;;4988543;28;20266;-50
2021/08/26 01:41:39;;;;;;;7.50;6.00;;;15.10;99.90;;;;;;4987458;28;20179;-51
2021/08/26 01:44:05;;;;;;;7.18;6.30;;;14.90;99.90;;;;;;4990807;28;20692;-51
2021/08/26 01:46:31;;;;;;;7.45;6.65;;;14.70;99.90;;;;;;4989358;28;20219;-51
2021/08/26 01:48:57;;;;;;;7.43;6.40;;;14.60;99.90;;;;;;4989193;28;20226;-51
2021/08/26 01:51:23;;;;;;;7.73;6.13;;;14.60;99.90;;;;;;4990820;28;20207;-51
2021/08/26 01:53:50;;;;;;;7.47;6.78;;;14.70;99.90;;;;;;4994425;28;20179;-51
2021/08/26 01:56:16;;;;;;;7.10;6.20;;;14.70;99.90;;;;;;4988442;28;20211;-51
2021/08/26 01:58:42;;;;;;;6.22;5.63;;;14.60;99.90;;;;;;4992820;28;20180;-49
2021/08/26 02:01:08;;;;;;;6.65;6.03;;;14.90;99.90;;;;;;4993241;28;20176;-50
2021/08/26 02:03:34;;;;;;;6.97;6.17;;;14.80;99.90;;;;;;4992435;28;20202;-51
2021/08/26 02:06:00;;;;;;;14.77;7.00;;;14.60;99.90;;;;;;4993718;28;20668;-50
2021/08/26 02:08:25;;;;;;;6.70;6.10;;;14.70;99.90;;;;;;4993492;28;20684;-51
2021/08/26 02:10:51;;;;;;;9.57;6.77;;;14.50;99.90;;;;;;4991351;28;20318;-50
2021/08/26 02:13:17;;;;;;;9.53;6.47;;;14.50;99.90;;;;;;4989072;28;20691;-50
2021/08/26 02:15:42;;;;;;;6.67;5.80;;;14.60;99.90;;;;;;4993160;28;20191;-50
2021/08/26 02:18:08;;;;;;;8.60;6.10;;;14.60;99.90;;;;;;4992641;28;20191;-50
2021/08/26 02:20:34;;;;;;;7.50;5.90;;;14.70;99.90;;;;;;4989201;28;20192;-50
2021/08/26 02:22:59;;;;;;;8.33;5.83;;;14.70;99.90;;;;;;4993265;28;20184;-50
2021/08/26 02:25:25;;;;;;;8.17;6.20;;;14.70;99.90;;;;;;4993825;28;20218;-50
2021/08/26 02:27:51;;;;;;;7.50;6.53;;;14.70;99.90;;;;;;4986125;28;20207;-50
2021/08/26 02:30:16;;;;;;;7.53;6.50;;;14.50;99.90;;;;;;4993403;28;20187;-50
2021/08/26 02:32:42;;;;;;;6.90;6.20;;;14.70;99.90;;;;;;4993342;28;20262;-51
2021/08/26 02:35:09;;;;;;;7.37;6.57;;;14.40;99.90;;;;;;4993593;28;20848;-50
2021/08/26 02:37:34;;;;;;;7.35;6.10;;;14.50;99.90;;;;;;4988740;28;20274;-50
2021/08/26 02:40:00;;;;;;;6.73;5.90;;;14.50;99.90;;;;;;4991154;28;20266;-50
2021/08/26 02:42:26;;;;;;;6.65;5.80;;;14.50;99.90;;;;;;4991265;28;20449;-50
2021/08/26 02:44:52;;;;;;;7.23;6.53;;;14.50;99.90;;;;;;4993459;28;20595;-50
2021/08/26 02:47:18;;;;;;;7.60;6.20;;;14.60;99.90;;;;;;4993068;28;20310;-51
2021/08/26 02:49:43;;;;;;;6.43;5.70;;;14.20;99.90;;;;;;4993578;28;20532;-50
2021/08/26 02:52:09;;;;;;;7.37;6.50;;;14.30;99.90;;;;;;4991647;28;20187;-50
2021/08/26 02:54:35;;;;;;;6.73;6.03;;;14.40;99.90;;;;;;4993304;28;20264;-51
2021/08/26 02:57:00;;;;;;;7.37;5.87;;;14.40;99.90;;;;;;4988508;28;20216;-50
2021/08/26 02:59:26;;;;;;;7.83;6.00;;;14.30;99.90;;;;;;4991568;28;20184;-50
2021/08/26 03:01:52;;;;;;;7.57;6.30;;;14.30;99.90;;;;;;4991104;28;20434;-50
2021/08/26 03:04:17;;;;;;;11.30;6.30;;;14.30;99.90;;;;;;4992830;28;20687;-51
2021/08/26 03:06:43;;;;;;;7.53;6.30;;;14.20;99.90;;;;;;4989067;28;20207;-50
2021/08/26 03:09:09;;;;;;;7.07;6.37;;;14.60;99.90;;;;;;4991716;28;20188;-50
2021/08/26 03:11:34;;;;;;;7.07;6.37;;;14.50;99.90;;;;;;4991451;28;20184;-50
2021/08/26 03:14:01;;;;;;;7.53;6.23;;;14.40;99.90;;;;;;4992160;28;20263;-51
2021/08/26 03:16:26;;;;;;;7.03;6.25;;;14.20;99.90;;;;;;4992416;28;20223;-49
2021/08/26 03:18:52;;;;;;;6.50;5.80;;;14.30;99.90;;;;;;4986921;28;20633;-50
2021/08/26 03:21:18;;;;;;;6.70;6.10;;;14.40;99.90;;;;;;4986476;28;20180;-50
2021/08/26 03:23:43;;;;;;;6.83;6.13;;;14.70;99.90;;;;;;4992108;28;20227;-50
2021/08/26 03:26:09;;;;;;;7.00;5.90;;;14.70;99.90;;;;;;4982779;28;20285;-50
2021/08/26 03:28:35;;;;;;;7.60;6.30;;;14.50;99.90;;;;;;4992728;28;20208;-50
2021/08/26 03:31:00;;;;;;;7.93;6.83;;;14.60;99.90;;;;;;4992585;28;20209;-50
2021/08/26 03:33:26;;;;;;;7.70;5.87;;;14.70;99.90;;;;;;4992613;28;20230;-51
2021/08/26 03:35:52;;;;;;;6.50;5.93;;;14.60;99.90;;;;;;4990798;28;20187;-50
2021/08/26 03:38:18;;;;;;;7.30;6.60;;;14.80;99.90;;;;;;4992088;28;20481;-51
2021/08/26 03:40:44;;;;;;;7.23;6.47;;;14.60;99.90;;;;;;4989816;28;20187;-51
2021/08/26 03:43:10;;;;;;;8.45;6.68;;;14.80;99.90;;;;;;4990277;28;20443;-51
2021/08/26 03:45:36;;;;;;;10.77;8.52;;;14.60;99.90;;;;;;4991840;28;20191;-51
2021/08/26 03:48:02;;;;;;;6.97;6.27;;;15.00;99.90;;;;;;4991600;28;20558;-51
2021/08/26 03:50:28;;;;;;;8.23;6.00;;;14.90;99.90;;;;;;4988024;28;20525;-51
2021/08/26 03:52:53;;;;;;;7.77;6.67;;;14.70;99.90;;;;;;4991735;28;20180;-50
2021/08/26 03:55:19;;;;;;;9.90;6.97;;;14.70;99.90;;;;;;4990031;28;20712;-50
2021/08/26 03:57:45;;;;;;;6.50;5.80;;;14.80;99.90;;;;;;4990597;28;20598;-51
2021/08/26 04:00:11;;;;;;;7.10;6.40;;;14.60;99.90;;;;;;4991446;28;20180;-51
2021/08/26 04:02:37;;;;;;;7.22;6.53;;;14.90;99.90;;;;;;4991602;28;20190;-50
2021/08/26 04:05:03;;;;;;;7.50;6.70;;;14.60;99.90;;;;;;4989640;28;20179;-50
2021/08/26 04:07:31;;;;;;;9.68;6.57;;;14.60;99.90;;;;;;4991502;28;20219;-50
2021/08/26 04:09:58;;;;;;;7.93;6.80;;;14.50;99.90;;;;;;4991265;28;20189;-50
2021/08/26 04:12:24;;;;;;;7.00;6.30;;;15.00;99.90;;;;;;4990144;28;20554;-50
2021/08/26 04:14:50;;;;;;;8.30;7.03;;;15.10;99.90;;;;;;4991862;28;20549;-50
2021/08/26 04:17:16;;;;;;;7.73;6.93;;;14.70;99.90;;;;;;4990722;28;20211;-50
2021/08/26 04:19:41;;;;;;;8.63;6.57;;;15.00;99.90;;;;;;4990682;28;20191;-51
2021/08/26 04:22:07;;;;;;;8.43;6.30;;;14.90;99.90;;;;;;4984424;28;20179;-50
2021/08/26 04:24:33;;;;;;;7.20;6.50;;;14.80;99.90;;;;;;4991433;28;20649;-50
2021/08/26 04:26:58;;;;;;;7.37;6.60;;;15.00;99.90;;;;;;4990143;28;20222;-50
2021/08/26 04:29:24;;;;;;;6.90;6.20;;;14.80;99.90;;;;;;4989544;28;20203;-51
2021/08/26 04:31:50;;;;;;;6.70;5.90;;;14.90;99.90;;;;;;4991510;28;20203;-50
2021/08/26 04:34:15;;;;;;;9.43;6.60;;;14.80;99.90;;;;;;4983032;28;20710;-51
2021/08/26 04:36:41;;;;;;;8.53;6.60;;;15.20;99.90;;;;;;4990080;28;20207;-50
2021/08/26 04:39:07;;;;;;;7.80;6.80;;;14.80;99.90;;;;;;4990859;28;20214;-50
2021/08/26 04:41:33;;;;;;;7.10;6.40;;;15.00;99.90;;;;;;4988805;28;20180;-51
2021/08/26 04:43:58;;;;;;;7.73;6.27;;;14.90;99.90;;;;;;4989103;28;20179;-50
2021/08/26 04:46:24;;;;;;;7.30;6.60;;;15.40;99.90;;;;;;4990125;28;20208;-50
2021/08/26 04:48:50;;;;;;;6.60;6.00;;;15.30;99.90;;;;;;4986374;28;20185;-50
2021/08/26 04:51:15;;;;;;;9.30;6.83;;;15.10;99.90;;;;;;4990476;28;20181;-51
2021/08/26 04:53:41;;;;;;;8.80;7.10;;;14.90;99.90;;;;;;4989463;28;20242;-51
2021/08/26 04:56:07;;;;;;;8.30;6.40;;;14.90;99.90;;;;;;4986455;28;20203;-51
2021/08/26 04:58:32;;;;;;;10.07;6.50;;;15.40;99.90;;;;;;4990620;28;20681;-50
2021/08/26 05:00:58;;;;;;;7.00;6.27;;;15.30;99.90;;;;;;4990545;28;20505;-50
2021/08/26 05:03:24;;;;;;;7.30;6.33;;;15.10;99.90;;;;;;4988012;28;20183;-51
2021/08/26 05:05:49;;;;;;;6.83;5.67;;;15.10;99.90;;;;;;4988802;28;20179;-50
2021/08/26 05:08:15;;;;;;;7.00;6.03;;;15.10;99.90;;;;;;4989948;28;20223;-50
2021/08/26 05:10:41;;;;;;;6.60;5.93;;;15.60;99.90;;;;;;4988703;28;20191;-50
2021/08/26 05:13:07;;;;;;;6.40;5.80;;;15.50;99.90;;;;;;4990547;28;20544;-50
2021/08/26 05:15:37;;;;;;;8.35;7.38;;;15.50;99.90;;;;;;4990178;28;20191;-50
2021/08/26 05:18:03;;;;;;;7.00;6.28;;;15.60;99.90;;;;;;4990179;28;20218;-52
2021/08/26 05:20:29;;;;;;;6.65;5.97;;;15.40;99.90;;;;;;4987698;28;20187;-50
2021/08/26 05:22:57;;;;;;;10.00;6.73;;;15.50;99.90;;;;;;4985313;28;20186;-50
2021/08/26 05:25:23;;;;;;;8.10;5.60;;;15.50;99.90;;;;;;4989260;28;20564;-51
2021/08/26 05:27:48;;;;;;;7.75;6.47;;;15.60;99.90;;;;;;4984128;28;20219;-50
2021/08/26 05:30:14;;;;;;;8.30;6.90;;;15.60;99.90;;;;;;4988526;28;20176;-50
2021/08/26 05:32:40;;;;;;;7.00;6.30;;;15.70;99.90;;;;;;4984334;28;20282;-53
2021/08/26 05:35:06;;;;;;;8.03;6.67;;;15.80;99.90;;;;;;4989056;28;20442;-54
2021/08/26 05:37:31;;;;;;;10.13;6.63;;;15.90;99.90;;;;;;4989548;28;20219;-54
2021/08/26 05:39:57;;;;;;;8.03;6.53;;;15.90;99.90;;;;;;4990939;28;20274;-53
2021/08/26 05:42:23;;;;;;;7.40;6.70;;;15.70;99.90;;;;;;4974243;28;20211;-55
2021/08/26 05:44:49;;;;;;;8.98;7.07;;;15.60;99.90;;;;;;4992751;28;20202;-55
2021/08/26 05:47:15;;;;;;;7.87;6.47;;;15.80;99.90;;;;;;4990428;28;20696;-55
2021/08/26 05:49:41;;;;;;;10.25;6.50;;;15.80;99.90;;;;;;4989489;28;20184;-50
2021/08/26 05:52:06;;;;;;;8.30;6.70;;;16.00;99.90;;;;;;4983720;28;20203;-51
2021/08/26 05:54:32;;;;;;;8.73;7.10;;;15.70;99.90;;;;;;4982346;28;20188;-50
2021/08/26 05:56:59;;;;;;;8.07;7.27;;;15.80;99.90;;;;;;4987177;28;20469;-50
2021/08/26 05:59:26;;;;;;;8.15;7.35;;;15.90;99.90;;;;;;4988655;28;20264;-50
2021/08/26 06:01:52;;;;;;;7.28;6.57;;;15.90;99.90;;;;;;4988382;28;20183;-50
2021/08/26 06:04:18;;;;;;;7.50;6.28;;;16.00;99.90;;;;;;4984405;28;20189;-52
2021/08/26 06:06:44;;;;;;;7.57;5.85;;;16.00;99.90;;;;;;4988328;28;20211;-51
2021/08/26 06:09:10;;;;;;;7.30;6.40;;;16.40;99.90;;;;;;4989940;28;20179;-48
2021/08/26 06:11:36;;;;;;;8.67;6.70;;;16.20;99.90;;;;;;4984453;28;20530;-52
2021/08/26 06:14:02;;;;;;;7.97;7.17;;;16.10;99.90;;;;;;4989298;28;20180;-52
2021/08/26 06:16:27;;;;;;;7.87;6.50;;;16.10;99.90;;;;;;4986323;28;20552;-50
2021/08/26 06:18:53;;;;;;;8.13;7.33;;;16.10;99.90;;;;;;4987516;28;20618;-49
2021/08/26 06:21:19;;;;;;;11.80;9.50;;;16.30;99.90;;;;;;4987759;28;20610;-48
2021/08/26 06:23:44;;;;;;;7.17;6.57;;;16.30;99.90;;;;;;4988982;28;20184;-50
2021/08/26 06:26:10;;;;;;;8.87;7.53;;;16.50;99.90;;;;;;4984017;28;20211;-49
2021/08/26 06:28:36;;;;;;;7.10;6.40;;;16.40;99.90;;;;;;4988075;28;21010;-49
2021/08/26 06:31:02;;;;;;;7.80;7.00;;;16.50;99.90;;;;;;4988947;28;20218;-49
2021/08/26 06:33:27;;;;;;;7.07;6.37;;;16.40;99.90;;;;;;4990299;28;20176;-51
2021/08/26 06:35:53;;;;;;;9.17;7.30;;;16.40;99.90;;;;;;4988219;28;20562;-50
2021/08/26 06:38:19;;;;;;;7.53;6.27;;;16.20;99.90;;;;;;4992513;28;20208;-50
2021/08/26 06:40:44;;;;;;;8.10;6.83;;;16.30;99.90;;;;;;4992161;28;20489;-50
2021/08/26 06:43:10;;;;;;;7.63;6.87;;;16.60;99.90;;;;;;4994410;28;20180;-49
2021/08/26 06:45:36;;;;;;;8.20;6.70;;;16.50;99.90;;;;;;4992921;28;20319;-50
2021/08/26 06:48:02;;;;;;;8.20;7.20;;;16.50;99.90;;;;;;4986003;28;20257;-49
2021/08/26 06:50:28;;;;;;;8.00;6.97;;;16.70;99.90;;;;;;4987982;28;20434;-49
2021/08/26 06:52:53;;;;;;;8.90;6.90;;;16.50;99.90;;;;;;4993631;28;20184;-50
2021/08/26 06:55:19;;;;;;;9.03;6.73;;;16.30;99.90;;;;;;4994021;28;20282;-49
2021/08/26 06:57:45;;;;;;;11.40;7.27;;;16.60;99.90;;;;;;4990961;28;20231;-50
2021/08/26 07:00:11;;;;;;;8.13;6.90;;;16.70;99.90;;;;;;4993028;28;20187;-50
2021/08/26 07:02:37;;;;;;;10.55;8.90;;;16.60;99.90;;;;;;4993520;28;20222;-49
2021/08/26 07:05:03;;;;;;;8.30;7.50;;;16.40;99.90;;;;;;4980199;28;20223;-49
2021/08/26 07:07:29;;;;;;;9.88;8.45;;;16.70;99.90;;;;;;4993416;28;20215;-51
2021/08/26 07:09:55;;;;;;;8.47;6.63;;;16.70;99.90;;;;;;4993340;28;20574;-50
2021/08/26 07:12:21;;;;;;;10.53;7.60;;;16.70;99.90;;;;;;4992904;28;20219;-50
2021/08/26 07:14:46;;;;;;;8.10;6.90;;;16.80;99.90;;;;;;4992937;28;20188;-49
2021/08/26 07:17:12;;;;;;;9.27;6.80;;;16.70;99.90;;;;;;4993728;28;20203;-51
2021/08/26 07:19:38;;;;;;;9.50;8.50;;;16.40;99.90;;;;;;4992660;28;20210;-51
2021/08/26 07:22:04;;;;;;;8.60;7.40;;;16.60;99.90;;;;;;4991682;28;20227;-50
2021/08/26 07:24:29;;;;;;;10.63;8.10;;;16.70;99.90;;;;;;4993340;28;20192;-49
2021/08/26 07:26:55;;;;;;;8.90;7.93;;;16.60;99.90;;;;;;4994278;28;20214;-50
2021/08/26 07:29:21;;;;;;;9.60;8.60;;;16.70;99.90;;;;;;4994276;28;20999;-51
2021/08/26 07:31:46;;;;;;;9.63;7.60;;;17.00;99.90;;;;;;4992278;28;20233;-50
2021/08/26 07:34:13;;;;;;;9.40;8.00;;;16.80;99.90;;;;;;4982866;28;20715;-50
2021/08/26 07:36:38;;;;;;;9.13;8.23;;;17.00;99.90;;;;;;4991337;28;20294;-50
2021/08/26 07:39:05;;;;;;;9.63;8.07;;;17.10;99.90;;;;;;4992714;28;20254;-50
2021/08/26 07:41:31;;;;;;;9.63;8.63;;;17.20;99.90;;;;;;4991370;28;20601;-49
2021/08/26 07:43:57;;;;;;;9.87;8.87;;;17.00;99.90;;;;;;4991892;28;20203;-49
2021/08/26 07:46:23;;;;;;;10.98;8.85;;;17.30;99.90;;;;;;4990566;28;20669;-49
2021/08/26 07:48:49;;;;;;;10.80;7.90;;;17.30;99.90;;;;;;4991249;28;20192;-49
2021/08/26 07:51:15;;;;;;;9.00;8.10;;;17.30;99.90;;;;;;4988164;28;20229;-50
2021/08/26 07:53:40;;;;;;;10.93;8.80;;;17.50;99.90;;;;;;4991551;28;20184;-50
2021/08/26 07:56:06;;;;;;;12.80;9.27;;;17.50;99.90;;;;;;4990689;28;20198;-50
2021/08/26 07:58:32;;;;;;;10.37;8.57;;;17.70;99.90;;;;;;4990535;28;20179;-50
2021/08/26 08:00:59;;;;;;;11.20;10.00;;;17.70;99.90;;;;;;4991520;28;20243;-50
2021/08/26 08:03:25;;;;;;;11.45;9.05;;;17.50;99.90;;;;;;4989849;28;20226;-50
2021/08/26 08:05:54;;;;;;;9.43;8.53;;;17.70;99.90;;;;;;4988253;28;20207;-49
2021/08/26 08:08:20;;;;;;;9.27;8.30;;;17.70;99.90;;;;;;4990390;28;20227;-50
2021/08/26 08:10:46;;;;;;;9.13;8.13;;;17.40;99.90;;;;;;4988843;28;20668;-50
2021/08/26 08:13:11;;;;;;;8.70;7.90;;;17.60;99.90;;;;;;4990126;28;20242;-50
2021/08/26 08:15:37;;;;;;;10.20;9.00;;;17.70;99.90;;;;;;4982516;28;20231;-49
2021/08/26 08:18:04;;;;;;;10.20;9.20;;;17.70;99.90;;;;;;4987531;28;20215;-50
2021/08/26 08:20:30;;;;;;;11.25;8.88;;;17.60;99.90;;;;;;4986695;28;20187;-50
2021/08/26 08:22:55;;;;;;;8.77;7.87;;;17.50;99.90;;;;;;4989356;28;20293;-50
2021/08/26 08:25:21;;;;;;;9.70;8.70;;;17.40;99.90;;;;;;4989333;28;20238;-49
2021/08/26 08:27:47;;;;;;;9.70;8.73;;;17.60;99.90;;;;;;4986539;28;20223;-50
2021/08/26 08:30:12;;;;;;;10.70;9.60;;;17.60;99.90;;;;;;4988967;28;20227;-50
2021/08/26 08:32:38;;;;;;;11.47;10.20;;;17.50;99.90;;;;;;4991183;28;20547;-50
2021/08/26 08:35:04;;;;;;;10.67;9.40;;;17.50;99.90;;;;;;4986083;28;20604;-50
2021/08/26 08:37:30;;;;;;;10.93;9.88;;;17.50;99.90;;;;;;4981294;28;20685;-49
2021/08/26 08:39:56;;;;;;;12.30;11.10;;;17.40;99.90;;;;;;4988238;28;20187;-49
2021/08/26 08:42:23;;;;;;;13.00;11.10;;;17.20;99.90;;;;;;4989076;28;20267;-49
2021/08/26 08:44:50;;;;;;;12.07;10.98;;;17.10;99.90;;;;;;4990045;28;20253;-49
2021/08/26 08:47:17;;;;;;;14.25;12.85;;;17.00;99.90;;;;;;4990541;28;20298;-49
2021/08/26 08:49:43;;;;;;;12.52;11.32;;;17.10;99.90;;;;;;4985897;28;20216;-50
2021/08/26 08:52:09;;;;;;;13.18;11.40;;;17.10;99.90;;;;;;4989005;28;20183;-50
2021/08/26 08:54:36;;;;;;;13.00;11.68;;;16.80;99.90;;;;;;4989483;28;20203;-49
2021/08/26 08:57:03;;;;;;;13.52;12.23;;;16.90;99.90;;;;;;4987827;28;20207;-50
2021/08/26 08:59:29;;;;;;;13.70;12.40;;;16.70;99.90;;;;;;4988398;28;20406;-50
2021/08/26 09:01:56;;;;;;;12.65;11.35;;;16.70;99.90;;;;;;4989787;28;20595;-51
2021/08/26 09:04:23;;;;;;;14.10;12.70;;;16.80;99.90;;;;;;4981473;28;20206;-50
2021/08/26 09:06:50;;;;;;;14.15;12.73;;;17.10;99.90;;;;;;4991874;28;20700;-50
2021/08/26 09:09:16;;;;;;;13.07;11.88;;;16.70;99.90;;;;;;4990058;28;20176;-51
2021/08/26 09:11:54;;;;;;;13.63;12.23;;;16.90;99.90;;;;;;4989835;28;20242;-50
2021/08/26 09:14:24;;;;;;;14.57;13.13;;;16.90;99.90;;;;;;4990691;28;20191;-50
2021/08/26 09:16:51;;;;;;;14.07;12.60;;;17.10;99.90;;;;;;4991313;28;20214;-51
2021/08/26 09:19:31;;;;;;;14.90;12.95;;;17.00;99.90;;;;;;4990848;28;20590;-51
2021/08/26 09:22:03;;;;;;;14.68;13.18;;;17.20;99.90;;;;;;4988179;28;20181;-50
2021/08/26 09:24:50;;;;;;;14.15;12.75;;;17.10;99.90;;;;;;4979987;28;20206;-50
2021/08/26 09:27:34;;;;;;;14.18;11.77;;;16.90;99.90;;;;;;4986610;28;20944;-50
2021/08/26 09:30:06;;;;;;;14.68;13.18;;;17.10;99.90;;;;;;4983464;28;20172;-50
2021/08/26 09:32:37;;;;;;;17.35;14.55;;;17.20;99.90;;;;;;4989715;28;20241;-52
2021/08/26 09:35:31;;;;;;;13.95;12.65;;;17.10;99.90;;;;;;4982201;28;20551;-50
2021/08/26 09:37:59;;;;;;;14.00;12.70;;;17.00;99.90;;;;;;4980393;28;20238;-50
2021/08/26 09:40:41;;;;;;;13.23;12.10;;;17.00;99.90;;;;;;4984560;28;20187;-50
2021/08/26 09:43:07;;;;;;;14.95;13.55;;;16.60;99.90;;;;;;4988106;28;20183;-50
2021/08/26 09:45:38;;;;;;;12.48;11.20;;;17.00;99.90;;;;;;4984400;28;20751;-51
2021/08/26 09:48:11;;;;;;;13.77;12.40;;;17.10;99.90;;;;;;4981674;28;20298;-51
2021/08/26 09:50:49;;;;;;;13.55;12.25;;;17.00;99.90;;;;;;4983384;28;20257;-51
2021/08/26 09:53:23;;;;;;;12.10;10.95;;;17.40;99.90;;;;;;4989443;28;20176;-51
2021/08/26 09:55:51;;;;;;;12.32;11.32;;;17.10;99.90;;;;;;4988995;28;20203;-51
2021/08/26 09:58:19;;;;;;;11.23;10.13;;;17.30;99.90;;;;;;4977714;28;20250;-50
2021/08/26 10:00:45;;;;;;;10.32;9.32;;;17.10;99.90;;;;;;4979836;28;20582;-51
2021/08/26 10:03:12;;;;;;;10.27;9.25;;;17.00;99.90;;;;;;4985032;28;20552;-50
2021/08/26 10:05:39;;;;;;;10.65;9.63;;;17.10;99.90;;;;;;4983217;28;20253;-51
2021/08/26 10:08:06;;;;;;;7.40;6.80;;;16.80;99.90;;;;;;4989806;28;20223;-51
2021/08/26 10:10:33;;;;;;;7.35;6.72;;;16.80;99.90;;;;;;4990366;28;20183;-50
2021/08/26 10:13:02;;;;;;;7.50;6.80;;;16.90;99.90;;;;;;4991196;28;20253;-51
2021/08/26 10:15:28;;;;;;;9.00;8.18;;;17.00;99.90;;;;;;4991908;28;20179;-51
2021/08/26 10:17:54;;;;;;;8.98;7.82;;;16.90;99.90;;;;;;4992323;28;20204;-51
2021/08/26 10:20:21;;;;;;;6.82;5.88;;;16.90;99.90;;;;;;4991155;28;20659;-51
2021/08/26 10:22:48;;;;;;;6.07;5.57;;;17.00;99.90;;;;;;4992226;28;20716;-51
2021/08/26 10:25:15;;;;;;;5.90;5.40;;;16.70;99.90;;;;;;4992838;28;20219;-51
2021/08/26 10:27:43;;;;;;;4.97;4.05;;;17.10;99.90;;;;;;4987912;28;20207;-51
2021/08/26 10:30:09;;;;;;;4.05;3.70;;;16.60;99.90;;;;;;4992834;28;20183;-50
2021/08/26 10:32:35;;;;;;;3.97;3.67;;;16.70;99.90;;;;;;4991064;28;20263;-53
2021/08/26 10:35:11;;;;;;;4.10;3.40;;;16.30;99.90;;;;;;4989081;28;20274;-52
2021/08/26 10:37:57;;;;;;;4.93;4.43;;;16.80;99.90;;;;;;4992112;28;20605;-53
2021/08/26 10:40:33;;;;;;;4.30;3.97;;;16.70;99.90;;;;;;4987325;28;20205;-51
2021/08/26 10:43:00;;;;;;;3.65;3.20;;;16.90;99.90;;;;;;4991380;28;20278;-51
2021/08/26 10:45:29;;;;;;;3.30;2.97;;;16.90;99.90;;;;;;4994226;28;20179;-51
2021/08/26 10:47:56;;;;;;;3.28;2.97;;;17.10;99.90;;;;;;4992160;28;20699;-50
2021/08/26 10:50:26;;;;;;;3.40;3.10;;;17.30;99.90;;;;;;4992142;28;20187;-51
2021/08/26 10:53:10;;;;;;;3.70;3.40;;;17.40;99.90;;;;;;4989522;28;20187;-51
2021/08/26 10:55:50;;;;;;;4.05;3.60;;;17.50;99.90;;;;;;4991450;28;20224;-51
2021/08/26 10:58:25;;;;;;;4.18;3.78;;;17.50;99.90;;;;;;4990095;28;20240;-51
2021/08/26 11:00:59;;;;;;;4.10;3.75;;;17.70;99.90;;;;;;4990915;28;20193;-53
2021/08/26 11:03:34;;;;;;;3.33;3.10;;;18.10;99.90;;;;;;4991905;28;20661;-51
2021/08/26 11:06:19;;;;;;;3.92;3.63;;;18.20;99.90;;;;;;4985196;28;20681;-50
2021/08/26 11:08:51;;;;;;;4.03;3.65;;;18.30;99.90;;;;;;4988297;28;20199;-50
2021/08/26 11:14:02;;;;;;;3.97;3.67;;;19.00;99.90;;;;;;4981091;28;20201;-52
2021/08/26 11:16:27;;;;;;;5.07;4.65;;;19.00;99.90;;;;;;4992136;28;20246;-52
2021/08/26 11:19:16;;;;;;;4.70;4.30;;;19.20;99.90;;;;;;4990279;28;20683;-51
2021/08/26 11:21:48;;;;;;;4.70;3.88;;;19.30;99.90;;;;;;4989568;28;20191;-51
2021/08/26 11:24:19;;;;;;;3.90;3.60;;;19.60;99.90;;;;;;4984969;28;20190;-51
2021/08/26 11:26:51;;;;;;;5.00;4.50;;;20.00;99.90;;;;;;4988197;28;20203;-51
2021/08/26 11:29:23;;;;;;;4.65;4.20;;;20.30;99.90;;;;;;4991576;28;20653;-51
2021/08/26 11:31:54;;;;;;;6.03;4.20;;;20.60;99.90;;;;;;4992350;28;20207;-49
2021/08/26 11:34:21;;;;;;;5.85;5.00;;;20.60;99.70;;;;;;4986493;28;20186;-50
2021/08/26 11:36:56;;;;;;;7.47;5.50;;;20.60;99.30;;;;;;4991565;28;20211;-50
2021/08/26 11:39:22;;;;;;;5.70;5.20;;;20.60;98.90;;;;;;4990028;28;20183;-49
2021/08/26 11:41:48;;;;;;;5.30;4.33;;;20.60;97.90;;;;;;4985274;28;20669;-50
2021/08/26 11:44:15;;;;;;;7.97;6.60;;;20.30;97.80;;;;;;4991876;28;20184;-49
2021/08/26 11:46:41;;;;;;;6.85;5.68;;;20.20;97.10;;;;;;4991372;28;20791;-49
2021/08/26 11:49:06;;;;;;;10.88;6.13;;;19.90;97.10;;;;;;4985774;28;20188;-50
2021/08/26 11:51:33;;;;;;;7.07;5.60;;;19.40;98.50;;;;;;4990454;28;20187;-49
2021/08/26 11:54:12;;;;;;;8.82;6.00;;;19.20;99.10;;;;;;4990984;28;20188;-50
2021/08/26 11:56:51;;;;;;;5.82;5.22;;;19.30;98.80;;;;;;4988720;28;20199;-50
2021/08/26 11:59:24;;;;;;;6.00;5.40;;;19.20;98.10;;;;;;4991345;28;20194;-50
2021/08/26 12:01:50;;;;;;;7.63;6.93;;;19.20;98.90;;;;;;4991451;28;20188;-50
2021/08/26 12:04:15;;;;;;;6.53;5.93;;;19.20;99.10;;;;;;4990678;28;20909;-50
2021/08/26 12:06:48;;;;;;;6.43;5.67;;;19.20;99.00;;;;;;4989389;28;20210;-51
2021/08/26 12:09:13;;;;;;;5.85;5.25;;;19.10;99.40;;;;;;4991081;28;20187;-51
2021/08/26 12:11:39;;;;;;;9.13;5.67;;;18.90;98.40;;;;;;4982559;28;20192;-50
2021/08/26 12:14:08;;;;;;;6.50;5.60;;;18.70;99.20;;;;;;4990746;28;20594;-51
2021/08/26 12:16:34;;;;;;;8.63;6.28;;;18.80;99.20;;;;;;4991070;28;20253;-50
2021/08/26 12:19:04;;;;;;;10.27;6.07;;;18.70;99.10;;;;;;4989376;28;20448;-51
2021/08/26 12:21:30;;;;;;;6.63;5.90;;;18.80;99.80;;;;;;4988872;28;20458;-50
2021/08/26 12:23:56;;;;;;;6.20;5.28;;;18.80;99.40;;;;;;4986689;28;20183;-50
2021/08/26 12:26:22;;;;;;;6.93;5.53;;;18.80;99.30;;;;;;4982659;28;20207;-50
2021/08/26 12:29:00;;;;;;;5.78;5.18;;;19.00;99.50;;;;;;4989119;28;20478;-51
2021/08/26 12:31:27;;;;;;;5.53;5.03;;;19.10;99.20;;;;;;4985004;28;20184;-51
2021/08/26 12:33:59;;;;;;;6.00;5.40;;;19.20;98.00;;;;;;4991491;28;20187;-50
2021/08/26 12:36:25;;;;;;;5.78;5.18;;;19.40;97.80;;;;;;4989142;28;20642;-51
2021/08/26 12:38:50;;;;;;;5.22;4.80;;;19.50;97.40;;;;;;4991150;28;20556;-51
2021/08/26 12:41:18;;;;;;;6.23;5.40;;;19.50;97.20;;;;;;4990022;28;20187;-48
2021/08/26 12:43:48;;;;;;;6.53;5.82;;;19.70;97.40;;;;;;4991185;28;20449;-49
2021/08/26 12:46:18;;;;;;;6.78;5.32;;;19.50;96.90;;;;;;4991238;28;20211;-50
2021/08/26 12:48:45;;;;;;;5.85;5.25;;;19.90;96.30;;;;;;4981092;28;20228;-50
2021/08/26 12:51:18;;;;;;;8.10;6.05;;;19.90;96.20;;;;;;4991509;28;20190;-49
2021/08/26 12:53:48;;;;;;;6.03;5.35;;;19.90;96.40;;;;;;4979677;28;20873;-49